Terminal Aerodrome Forecast
Issued by NWS

Home | Current Version | Previous Version | Text Only | Print | Product List | Glossary On
Versions: 1 2 3 4 5 6 7 8 9 10 11 12 13 14 15 16 17
000
FTAK31 PAJN 261134
TAFASI
TAF
PASI 261134Z 2612/2712 VRB03KT P6SM -RA SCT015 BKN025
      TEMPO 2612/2616 6SM -RA BR BKN015 OVC025
     FM270000 24006KT P6SM VCSH SCT015 BKN025
     FM270600 30008KT P6SM SCT025 OVC050=

USA.gov is the U.S. government's official web portal to all federal, state and local government web resources and services.